Dauntless Aviation
Airports Europe United Kingdom
EGLC
LCY

London City

London, UNITED KINGDOM

Airport Info
Suggest Updated Information for this Airport

Location

Latitude / Longitude: 51°30'18"N / 0°3'12"E
  51°30.3'N / 0°3.21'E
  51.5050 / 0.0535

Nearby radio navigation aids

LCY CITY NDB on field.

Runway Information

Runway 10 /28

Dimensions: 4948 x 98 ft.
Surface: ASP
 
Runway 10
Runway 28
Latitude: 51.505528 51.504922
Longitude: 0.045753 0.064953
Elevation: 16 ft. 16 ft.
Runway true heading: 91.1 271.1
 

Instrument Procedures

  Control Zone and Control Area Chart
  Aircraft Parking/Docking Chart
  Aerodrome Chart

STARs (Standard Terminal Arrivals)

  STAR via SPEAR (Northwest)
  STAR via ALKIN (South)
  STAR via SPEAR (East)
  STAR via SPEAR (West)
  STAR via SPEAR (Alternate Holding at LOGAN and ALKIN)

IAPs (Instrument Approach Procedures)

  LOC/DME/NDB (L) Rwy 27 (Aircraft CAT A/B/C)
  Visual Approach Profile Rwy 27
  ILS (5.5°GP) /DME/NDB (L) Rwy 27 (Aircraft CAT A/B/C)
  Visual Approach Profile Rwy 09
  LOC/DME/NDB (L) Rwy 09
  ATC Surveillance Minimum Altitude Chart
  ILS (5.5°GP) /DME/NDB (L) Rwy 09 (Aircraft CAT A/B/C)

Departure Procedures

  SID DOVER/LYDD
  SID CLACTON
  SID SOUTHAMPTON
  SID BROOKMANS PARK/COMPTON
Satellite photo at:
Airport distance calculator
From:
Weather Reports

METAR

EGLC

EGLC 142020Z 35012KT 330V030 CAVOK 04/M03 Q1006
EGWU
17.8nm W
EGWU 141950Z 36009KT CAVOK 03/M03 Q1006 NOSIG
EGLL
18.9nm SW
EGLL 142020Z AUTO 35007KT 320V030 9999 NCD 03/M03 Q1007 NOSIG
EGSS
23.5nm N
EGSS 142020Z AUTO 36010KT 9999 -RA FEW017/// //////TCU 02/M02 Q1006
EGKK
23.8nm S
EGKK 142020Z 35009KT 9999 FEW035 02/M04 Q1006
EGMC
24.4nm NE
EGMC 142020Z 35014KT 9999 -SHSN FEW012 SCT015 02/M00 Q1006

TAF

EGLC
TAF EGLC 141705Z 1418/1422 35011KT 9999 FEW025 PROB40 TEMPO 1418/1422 6000 -SHSN BKN014
EGKB
11.4nm S
TAF EGKB 141705Z 1418/1420 35010KT 9999 FEW025 PROB30 TEMPO 1419/1420 6000 -SHSN BKN014
EGWU
17.8nm W
TAF EGWU 141644Z 1418/1512 36012KT 9999 FEW035 PROB30 TEMPO 1423/1502 SCT015 TEMPO 1502/1510 5000 -SHSN BKN010 TEMPO 1510/1512 BKN015
EGLL
18.9nm SW
TAF EGLL 141653Z 1418/1524 35010KT 9999 SCT035 PROB30 TEMPO 1421/1510 6000 -SHSN BKN008 PROB30 1522/1524 6000
EGSS
23.5nm N
TAF EGSS 141705Z 1418/1524 35011KT 9999 FEW025 TEMPO 1418/1510 6000 -SHSN BKN010 PROB30 TEMPO 1418/1510 1400 SHSN BKN004 PROB30 TEMPO 1510/1516 4000 SHRASN BKN010
EGKK
23.8nm S
TAF EGKK 141652Z 1418/1524 03012KT 9999 SCT025 PROB30 TEMPO 1419/1424 5000 -SHRASN BKN010 BECMG 1423/1502 33010KT PROB30 TEMPO 1500/1509 3000 -SHSN BKN007 PROB30 TEMPO 1509/1518 5000 -SHRASN -SHRA BKN010 PROB30 1521/1524 5000 BR
Safelog

 

Dauntless Aviation

© 2007-2016 Dauntless Aviation, all rights reserved
Information provided via PilotNav comes from a variety of official and unofficial data sources. As errors are possible, do not use PilotNav for primary flight planning purposes. Verify any information that you receive via PilotNav with current and canonical charts and other official documents. The material in this database is subject to database copyrights held by Dauntless Aviation and may not be copied without the express permission of Dauntless Aviation - licenses for use of part of all of this data are available for purchase; enquire via the Dauntless Aviation helpdesk. A number of mechanisms and markers exist in the database to protect against and identify infringement / copyright. Automated queries against this website are stictly prohibited, and all activity is logged and analyzed.